sensor_id;sensor_type;location;lat;lon;timestamp;pressure;altitude;pressure_sealevel;temperature;humidity
19777;BME280;10047;42.490;26.012;2023-02-16T00:01:17;101574.88;;;0.75;100.00
19777;BME280;10047;42.490;26.012;2023-02-16T00:03:43;101577.53;;;0.78;100.00
19777;BME280;10047;42.490;26.012;2023-02-16T00:06:08;101520.66;;;0.74;100.00
19777;BME280;10047;42.490;26.012;2023-02-16T00:08:39;101564.38;;;0.84;100.00
19777;BME280;10047;42.490;26.012;2023-02-16T00:11:12;101565.75;;;0.76;100.00
19777;BME280;10047;42.490;26.012;2023-02-16T00:13:58;101556.03;;;0.61;100.00
19777;BME280;10047;42.490;26.012;2023-02-16T00:16:24;101555.53;;;0.94;100.00
19777;BME280;10047;42.490;26.012;2023-02-16T00:18:50;101562.41;;;0.99;100.00
19777;BME280;10047;42.490;26.012;2023-02-16T00:21:16;101564.75;;;0.50;100.00
19777;BME280;10047;42.490;26.012;2023-02-16T00:23:43;101531.56;;;0.54;100.00
19777;BME280;10047;42.490;26.012;2023-02-16T00:26:23;101521.06;;;0.41;100.00
19777;BME280;10047;42.490;26.012;2023-02-16T00:28:54;101563.09;;;0.29;100.00
19777;BME280;10047;42.490;26.012;2023-02-16T00:31:24;101553.22;;;0.76;100.00
19777;BME280;10047;42.490;26.012;2023-02-16T00:33:51;101558.22;;;0.11;100.00
19777;BME280;10047;42.490;26.012;2023-02-16T00:36:17;101548.78;;;0.47;100.00
19777;BME280;10047;42.490;26.012;2023-02-16T00:38:42;101553.56;;;0.41;100.00
19777;BME280;10047;42.490;26.012;2023-02-16T00:41:17;101556.53;;;0.53;100.00
19777;BME280;10047;42.490;26.012;2023-02-16T00:44:02;101552.38;;;0.75;100.00
19777;BME280;10047;42.490;26.012;2023-02-16T00:46:28;101518.28;;;0.33;100.00
19777;BME280;10047;42.490;26.012;2023-02-16T00:48:53;101564.97;;;0.77;100.00
19777;BME280;10047;42.490;26.012;2023-02-16T00:51:19;101502.75;;;0.20;100.00
19777;BME280;10047;42.490;26.012;2023-02-16T00:53:44;101539.03;;;0.53;100.00
19777;BME280;10047;42.490;26.012;2023-02-16T00:56:12;101510.81;;;0.35;100.00
19777;BME280;10047;42.490;26.012;2023-02-16T00:58:41;101547.81;;;0.87;100.00
19777;BME280;10047;42.490;26.012;2023-02-16T01:01:10;101514.34;;;0.40;100.00
19777;BME280;10047;42.490;26.012;2023-02-16T01:03:37;101559.38;;;0.62;100.00
19777;BME280;10047;42.490;26.012;2023-02-16T01:06:02;101493.19;;;0.54;100.00
19777;BME280;10047;42.490;26.012;2023-02-16T01:08:46;101541.84;;;0.84;100.00
19777;BME280;10047;42.490;26.012;2023-02-16T01:11:30;101541.75;;;0.59;100.00
19777;BME280;10047;42.490;26.012;2023-02-16T01:13:56;101538.38;;;0.36;100.00
19777;BME280;10047;42.490;26.012;2023-02-16T01:16:32;101535.78;;;0.55;100.00
19777;BME280;10047;42.490;26.012;2023-02-16T01:18:59;101537.38;;;0.11;100.00
19777;BME280;10047;42.490;26.012;2023-02-16T01:21:25;101477.50;;;0.36;100.00
19777;BME280;10047;42.490;26.012;2023-02-16T01:23:50;101484.41;;;0.41;100.00
19777;BME280;10047;42.490;26.012;2023-02-16T01:26:17;101477.13;;;0.25;100.00
19777;BME280;10047;42.490;26.012;2023-02-16T01:28:44;101533.22;;;0.54;100.00
19777;BME280;10047;42.490;26.012;2023-02-16T01:31:10;101545.31;;;0.00;100.00
19777;BME280;10047;42.490;26.012;2023-02-16T01:33:36;101542.38;;;0.11;100.00
19777;BME280;10047;42.490;26.012;2023-02-16T01:36:02;101539.78;;;0.08;100.00
19777;BME280;10047;42.490;26.012;2023-02-16T01:38:28;101534.97;;;-0.09;100.00
19777;BME280;10047;42.490;26.012;2023-02-16T01:41:24;101525.00;;;0.14;100.00
19777;BME280;10047;42.490;26.012;2023-02-16T01:43:51;101528.91;;;-0.14;100.00
19777;BME280;10047;42.490;26.012;2023-02-16T01:46:24;101500.13;;;-0.45;100.00
19777;BME280;10047;42.490;26.012;2023-02-16T01:48:53;101476.06;;;-0.43;100.00
19777;BME280;10047;42.490;26.012;2023-02-16T01:54:50;101542.19;;;0.06;100.00
19777;BME280;10047;42.490;26.012;2023-02-16T02:00:03;101547.53;;;-0.47;100.00
19777;BME280;10047;42.490;26.012;2023-02-16T02:02:35;101483.00;;;-0.77;100.00
19777;BME280;10047;42.490;26.012;2023-02-16T02:08:36;101541.34;;;-0.36;100.00
19777;BME280;10047;42.490;26.012;2023-02-16T02:11:06;101544.66;;;-0.94;100.00
19777;BME280;10047;42.490;26.012;2023-02-16T02:13:44;101495.38;;;-0.39;100.00
19777;BME280;10047;42.490;26.012;2023-02-16T02:16:10;101547.00;;;-0.59;100.00
19777;BME280;10047;42.490;26.012;2023-02-16T02:18:36;101542.25;;;-0.73;100.00
19777;BME280;10047;42.490;26.012;2023-02-16T02:30:52;101540.94;;;-1.04;100.00
19777;BME280;10047;42.490;26.012;2023-02-16T02:35:55;101550.38;;;-1.16;100.00
19777;BME280;10047;42.490;26.012;2023-02-16T02:43:55;101466.00;;;-1.24;100.00
19777;BME280;10047;42.490;26.012;2023-02-16T02:46:32;101477.97;;;-1.17;100.00
19777;BME280;10047;42.490;26.012;2023-02-16T02:48:59;101500.16;;;-1.04;100.00
19777;BME280;10047;42.490;26.012;2023-02-16T02:51:24;101548.72;;;-0.77;100.00
19777;BME280;10047;42.490;26.012;2023-02-16T02:54:16;101480.03;;;-0.69;100.00
19777;BME280;10047;42.490;26.012;2023-02-16T02:57:04;101496.91;;;-0.82;100.00
19777;BME280;10047;42.490;26.012;2023-02-16T03:03:05;101483.16;;;-0.94;100.00
19777;BME280;10047;42.490;26.012;2023-02-16T03:05:34;101488.41;;;-0.88;100.00
19777;BME280;10047;42.490;26.012;2023-02-16T03:08:06;101546.22;;;-0.39;100.00
19777;BME280;10047;42.490;26.012;2023-02-16T03:10:41;101495.00;;;-1.26;100.00
19777;BME280;10047;42.490;26.012;2023-02-16T03:13:44;101546.88;;;-0.81;100.00
19777;BME280;10047;42.490;26.012;2023-02-16T03:16:19;101500.81;;;-1.08;100.00
19777;BME280;10047;42.490;26.012;2023-02-16T03:18:46;101549.38;;;-0.43;100.00
19777;BME280;10047;42.490;26.012;2023-02-16T03:21:31;101485.56;;;-0.76;100.00
19777;BME280;10047;42.490;26.012;2023-02-16T03:24:24;101548.09;;;-0.54;100.00
19777;BME280;10047;42.490;26.012;2023-02-16T03:27:11;101546.19;;;-0.78;100.00
19777;BME280;10047;42.490;26.012;2023-02-16T03:29:56;101488.00;;;-0.77;100.00
19777;BME280;10047;42.490;26.012;2023-02-16T03:32:23;101557.25;;;-0.91;100.00
19777;BME280;10047;42.490;26.012;2023-02-16T03:34:49;101544.88;;;-0.70;100.00
19777;BME280;10047;42.490;26.012;2023-02-16T03:37:15;101491.66;;;-0.69;100.00
19777;BME280;10047;42.490;26.012;2023-02-16T03:39:41;101555.06;;;-0.66;100.00
19777;BME280;10047;42.490;26.012;2023-02-16T03:42:25;101492.84;;;-0.80;100.00
19777;BME280;10047;42.490;26.012;2023-02-16T03:44:51;101492.06;;;-0.99;100.00
19777;BME280;10047;42.490;26.012;2023-02-16T03:47:17;101484.94;;;-0.70;100.00
19777;BME280;10047;42.490;26.012;2023-02-16T03:49:42;101554.56;;;-0.57;100.00
19777;BME280;10047;42.490;26.012;2023-02-16T03:52:08;101541.66;;;-0.68;100.00
19777;BME280;10047;42.490;26.012;2023-02-16T03:54:34;101485.00;;;-0.90;100.00
19777;BME280;10047;42.490;26.012;2023-02-16T03:56:59;101531.78;;;-0.46;100.00
19777;BME280;10047;42.490;26.012;2023-02-16T03:59:25;101499.56;;;-0.40;100.00
19777;BME280;10047;42.490;26.012;2023-02-16T04:01:50;101441.91;;;-1.05;100.00
19777;BME280;10047;42.490;26.012;2023-02-16T04:04:15;101551.81;;;-0.44;100.00
19777;BME280;10047;42.490;26.012;2023-02-16T04:06:41;101499.69;;;-1.15;100.00
19777;BME280;10047;42.490;26.012;2023-02-16T04:09:06;101476.38;;;-0.96;100.00
19777;BME280;10047;42.490;26.012;2023-02-16T04:11:32;101516.63;;;-1.08;100.00
19777;BME280;10047;42.490;26.012;2023-02-16T04:14:16;101499.28;;;-0.66;100.00
19777;BME280;10047;42.490;26.012;2023-02-16T04:16:41;101480.97;;;-1.43;100.00
19777;BME280;10047;42.490;26.012;2023-02-16T04:19:06;101545.06;;;-0.66;100.00
19777;BME280;10047;42.490;26.012;2023-02-16T04:21:33;101506.84;;;-1.22;100.00
19777;BME280;10047;42.490;26.012;2023-02-16T04:23:58;101499.63;;;-1.16;100.00
19777;BME280;10047;42.490;26.012;2023-02-16T04:26:24;101542.44;;;-0.69;100.00
19777;BME280;10047;42.490;26.012;2023-02-16T04:28:51;101543.00;;;-1.13;100.00
19777;BME280;10047;42.490;26.012;2023-02-16T04:31:16;101539.94;;;-1.07;100.00
19777;BME280;10047;42.490;26.012;2023-02-16T04:33:41;101538.25;;;-0.49;100.00
19777;BME280;10047;42.490;26.012;2023-02-16T04:36:07;101492.66;;;-0.85;100.00
19777;BME280;10047;42.490;26.012;2023-02-16T04:38:33;101492.34;;;-1.31;100.00
19777;BME280;10047;42.490;26.012;2023-02-16T04:40:58;101511.19;;;-0.99;100.00
19777;BME280;10047;42.490;26.012;2023-02-16T04:43:24;101502.84;;;-1.00;100.00
19777;BME280;10047;42.490;26.012;2023-02-16T04:45:50;101557.00;;;-1.16;100.00
19777;BME280;10047;42.490;26.012;2023-02-16T04:48:16;101540.69;;;-0.51;100.00
19777;BME280;10047;42.490;26.012;2023-02-16T04:50:41;101549.22;;;-0.85;100.00
19777;BME280;10047;42.490;26.012;2023-02-16T04:53:07;101549.34;;;-1.02;100.00
19777;BME280;10047;42.490;26.012;2023-02-16T04:55:32;101561.88;;;-1.00;100.00
19777;BME280;10047;42.490;26.012;2023-02-16T04:57:58;101501.28;;;-1.53;100.00
19777;BME280;10047;42.490;26.012;2023-02-16T05:00:23;101549.59;;;-0.96;100.00
19777;BME280;10047;42.490;26.012;2023-02-16T05:02:49;101543.88;;;-0.74;100.00
19777;BME280;10047;42.490;26.012;2023-02-16T05:05:14;101544.72;;;-0.93;100.00
19777;BME280;10047;42.490;26.012;2023-02-16T05:07:39;101499.28;;;-1.43;100.00
19777;BME280;10047;42.490;26.012;2023-02-16T05:10:05;101560.38;;;-1.33;100.00
19777;BME280;10047;42.490;26.012;2023-02-16T05:12:31;101483.53;;;-1.42;100.00
19777;BME280;10047;42.490;26.012;2023-02-16T05:15:34;101529.47;;;-1.54;100.00
19777;BME280;10047;42.490;26.012;2023-02-16T05:18:00;101561.75;;;-1.21;100.00
19777;BME280;10047;42.490;26.012;2023-02-16T05:20:25;101536.53;;;-1.09;100.00
19777;BME280;10047;42.490;26.012;2023-02-16T05:23:11;101556.16;;;-0.98;100.00
19777;BME280;10047;42.490;26.012;2023-02-16T05:25:37;101522.00;;;-1.18;100.00
19777;BME280;10047;42.490;26.012;2023-02-16T05:28:03;101516.09;;;-1.56;100.00
19777;BME280;10047;42.490;26.012;2023-02-16T05:30:28;101562.13;;;-0.75;100.00
19777;BME280;10047;42.490;26.012;2023-02-16T05:32:54;101571.53;;;-0.50;100.00
19777;BME280;10047;42.490;26.012;2023-02-16T05:35:19;101570.03;;;-0.66;100.00
19777;BME280;10047;42.490;26.012;2023-02-16T05:37:45;101582.22;;;-0.53;100.00
19777;BME280;10047;42.490;26.012;2023-02-16T05:40:11;101582.31;;;-0.70;100.00
19777;BME280;10047;42.490;26.012;2023-02-16T05:42:36;101543.38;;;-1.05;100.00
19777;BME280;10047;42.490;26.012;2023-02-16T05:45:02;101555.84;;;1.48;100.00
19777;BME280;10047;42.490;26.012;2023-02-16T05:47:27;101575.34;;;-0.19;100.00
19777;BME280;10047;42.490;26.012;2023-02-16T05:49:53;101576.00;;;-0.81;100.00
19777;BME280;10047;42.490;26.012;2023-02-16T05:52:18;101553.59;;;1.81;100.00
19777;BME280;10047;42.490;26.012;2023-02-16T05:54:44;101568.31;;;2.77;100.00
19777;BME280;10047;42.490;26.012;2023-02-16T05:57:09;101594.69;;;2.64;100.00
19777;BME280;10047;42.490;26.012;2023-02-16T05:59:34;101603.50;;;3.36;100.00
19777;BME280;10047;42.490;26.012;2023-02-16T06:02:00;101573.69;;;3.50;100.00
19777;BME280;10047;42.490;26.012;2023-02-16T06:04:25;101585.75;;;3.63;100.00
19777;BME280;10047;42.490;26.012;2023-02-16T06:06:53;101640.84;;;4.54;100.00
19777;BME280;10047;42.490;26.012;2023-02-16T06:09:18;101634.81;;;4.46;100.00
19777;BME280;10047;42.490;26.012;2023-02-16T06:11:44;101654.09;;;4.82;100.00
19777;BME280;10047;42.490;26.012;2023-02-16T06:14:12;101619.22;;;5.41;100.00
19777;BME280;10047;42.490;26.012;2023-02-16T06:16:39;101631.22;;;5.12;100.00
19777;BME280;10047;42.490;26.012;2023-02-16T06:19:06;101681.06;;;4.86;100.00
19777;BME280;10047;42.490;26.012;2023-02-16T06:21:32;101656.59;;;5.61;100.00
19777;BME280;10047;42.490;26.012;2023-02-16T06:23:57;101695.63;;;6.23;100.00
19777;BME280;10047;42.490;26.012;2023-02-16T06:26:23;101674.03;;;5.92;100.00
19777;BME280;10047;42.490;26.012;2023-02-16T06:28:49;101698.94;;;5.76;100.00
19777;BME280;10047;42.490;26.012;2023-02-16T06:31:15;101689.97;;;7.51;100.00
19777;BME280;10047;42.490;26.012;2023-02-16T06:33:40;101677.94;;;6.74;100.00
19777;BME280;10047;42.490;26.012;2023-02-16T06:36:08;101623.97;;;6.15;100.00
19777;BME280;10047;42.490;26.012;2023-02-16T06:38:33;101680.44;;;5.77;100.00
19777;BME280;10047;42.490;26.012;2023-02-16T06:40:59;101672.03;;;4.94;100.00
19777;BME280;10047;42.490;26.012;2023-02-16T06:43:24;101678.50;;;3.82;100.00
19777;BME280;10047;42.490;26.012;2023-02-16T06:45:50;101673.03;;;3.37;100.00
19777;BME280;10047;42.490;26.012;2023-02-16T06:48:15;101632.97;;;2.57;100.00
19777;BME280;10047;42.490;26.012;2023-02-16T06:50:40;101677.06;;;2.76;100.00
19777;BME280;10047;42.490;26.012;2023-02-16T06:53:06;101662.34;;;3.15;100.00
19777;BME280;10047;42.490;26.012;2023-02-16T06:55:31;101696.72;;;3.45;100.00
19777;BME280;10047;42.490;26.012;2023-02-16T06:58:02;101690.00;;;3.44;100.00
19777;BME280;10047;42.490;26.012;2023-02-16T07:00:28;101696.34;;;3.62;100.00
19777;BME280;10047;42.490;26.012;2023-02-16T07:02:54;101695.22;;;3.80;100.00
19777;BME280;10047;42.490;26.012;2023-02-16T07:05:19;101696.22;;;3.57;100.00
19777;BME280;10047;42.490;26.012;2023-02-16T07:07:45;101687.22;;;4.27;100.00
19777;BME280;10047;42.490;26.012;2023-02-16T07:10:10;101692.94;;;4.22;100.00
19777;BME280;10047;42.490;26.012;2023-02-16T07:12:35;101629.81;;;4.13;100.00
19777;BME280;10047;42.490;26.012;2023-02-16T07:15:01;101630.72;;;4.16;100.00
19777;BME280;10047;42.490;26.012;2023-02-16T07:17:26;101691.50;;;3.38;100.00
19777;BME280;10047;42.490;26.012;2023-02-16T07:19:52;101671.09;;;4.21;100.00
19777;BME280;10047;42.490;26.012;2023-02-16T07:22:17;101667.69;;;4.19;100.00
19777;BME280;10047;42.490;26.012;2023-02-16T07:24:43;101685.69;;;4.01;100.00
19777;BME280;10047;42.490;26.012;2023-02-16T07:27:08;101682.38;;;3.71;100.00
19777;BME280;10047;42.490;26.012;2023-02-16T07:29:34;101661.38;;;4.34;100.00
19777;BME280;10047;42.490;26.012;2023-02-16T07:31:59;101651.53;;;4.79;100.00
19777;BME280;10047;42.490;26.012;2023-02-16T07:34:25;101603.94;;;4.54;100.00
19777;BME280;10047;42.490;26.012;2023-02-16T07:36:50;101661.31;;;5.04;100.00
19777;BME280;10047;42.490;26.012;2023-02-16T07:39:16;101662.09;;;4.29;100.00
19777;BME280;10047;42.490;26.012;2023-02-16T07:41:41;101588.50;;;4.40;100.00
19777;BME280;10047;42.490;26.012;2023-02-16T07:44:07;101656.81;;;4.54;100.00
19777;BME280;10047;42.490;26.012;2023-02-16T07:46:33;101647.72;;;4.59;100.00
19777;BME280;10047;42.490;26.012;2023-02-16T07:48:58;101567.44;;;4.74;100.00
19777;BME280;10047;42.490;26.012;2023-02-16T07:51:25;101549.53;;;4.23;100.00
19777;BME280;10047;42.490;26.012;2023-02-16T07:53:52;101629.09;;;5.73;100.00
19777;BME280;10047;42.490;26.012;2023-02-16T07:56:32;101623.94;;;5.69;100.00
19777;BME280;10047;42.490;26.012;2023-02-16T07:58:59;101638.09;;;5.61;100.00
19777;BME280;10047;42.490;26.012;2023-02-16T08:01:25;101642.22;;;5.57;100.00
19777;BME280;10047;42.490;26.012;2023-02-16T08:03:51;101574.25;;;6.12;100.00
19777;BME280;10047;42.490;26.012;2023-02-16T08:06:17;101591.03;;;5.63;100.00
19777;BME280;10047;42.490;26.012;2023-02-16T08:08:43;101635.34;;;5.92;100.00
19777;BME280;10047;42.490;26.012;2023-02-16T08:11:22;101630.19;;;6.37;100.00
19777;BME280;10047;42.490;26.012;2023-02-16T08:13:48;101632.41;;;6.17;100.00
19777;BME280;10047;42.490;26.012;2023-02-16T08:16:15;101626.97;;;6.45;100.00
19777;BME280;10047;42.490;26.012;2023-02-16T08:18:42;101636.69;;;6.21;100.00
19777;BME280;10047;42.490;26.012;2023-02-16T08:21:17;101628.66;;;6.46;100.00
19777;BME280;10047;42.490;26.012;2023-02-16T08:23:45;101622.63;;;6.35;100.00
19777;BME280;10047;42.490;26.012;2023-02-16T08:26:13;101640.44;;;5.50;100.00
19777;BME280;10047;42.490;26.012;2023-02-16T08:28:39;101584.47;;;6.20;100.00
19777;BME280;10047;42.490;26.012;2023-02-16T08:31:23;101568.50;;;6.21;100.00
19777;BME280;10047;42.490;26.012;2023-02-16T08:33:51;101584.66;;;5.83;100.00
19777;BME280;10047;42.490;26.012;2023-02-16T08:36:23;101627.94;;;6.01;100.00
19777;BME280;10047;42.490;26.012;2023-02-16T08:38:50;101625.41;;;6.53;100.00
19777;BME280;10047;42.490;26.012;2023-02-16T08:41:21;101536.41;;;6.14;100.00
19777;BME280;10047;42.490;26.012;2023-02-16T08:43:48;101590.63;;;5.85;100.00
19777;BME280;10047;42.490;26.012;2023-02-16T08:46:13;101605.44;;;6.70;100.00
19777;BME280;10047;42.490;26.012;2023-02-16T08:48:39;101625.91;;;6.31;100.00
19777;BME280;10047;42.490;26.012;2023-02-16T08:51:05;101626.38;;;6.09;100.00
19777;BME280;10047;42.490;26.012;2023-02-16T08:53:31;101621.88;;;5.48;100.00
19777;BME280;10047;42.490;26.012;2023-02-16T08:55:59;101610.59;;;6.22;100.00
19777;BME280;10047;42.490;26.012;2023-02-16T08:58:27;101606.06;;;6.00;100.00
19777;BME280;10047;42.490;26.012;2023-02-16T09:00:53;101612.00;;;6.05;100.00
19777;BME280;10047;42.490;26.012;2023-02-16T09:03:18;101625.44;;;6.55;100.00
19777;BME280;10047;42.490;26.012;2023-02-16T09:05:45;101566.44;;;6.51;100.00
19777;BME280;10047;42.490;26.012;2023-02-16T09:08:10;101592.06;;;6.77;100.00
19777;BME280;10047;42.490;26.012;2023-02-16T09:10:36;101574.63;;;7.73;100.00
19777;BME280;10047;42.490;26.012;2023-02-16T09:13:02;101598.25;;;7.76;100.00
19777;BME280;10047;42.490;26.012;2023-02-16T09:15:28;101626.03;;;7.69;100.00
19777;BME280;10047;42.490;26.012;2023-02-16T09:17:54;101580.34;;;7.54;100.00
19777;BME280;10047;42.490;26.012;2023-02-16T09:20:19;101589.75;;;6.34;100.00
19777;BME280;10047;42.490;26.012;2023-02-16T09:22:45;101575.75;;;7.21;100.00
19777;BME280;10047;42.490;26.012;2023-02-16T09:25:13;101633.28;;;8.20;100.00
19777;BME280;10047;42.490;26.012;2023-02-16T09:27:40;101634.84;;;8.07;100.00
19777;BME280;10047;42.490;26.012;2023-02-16T09:30:06;101637.22;;;7.87;100.00
19777;BME280;10047;42.490;26.012;2023-02-16T09:32:33;101639.78;;;7.92;100.00
19777;BME280;10047;42.490;26.012;2023-02-16T09:34:59;101539.38;;;7.94;100.00
19777;BME280;10047;42.490;26.012;2023-02-16T09:37:24;101587.44;;;7.93;100.00
19777;BME280;10047;42.490;26.012;2023-02-16T09:39:50;101616.88;;;8.87;100.00
19777;BME280;10047;42.490;26.012;2023-02-16T09:45:19;101623.72;;;8.97;100.00
19777;BME280;10047;42.490;26.012;2023-02-16T09:47:49;101591.03;;;8.17;100.00
19777;BME280;10047;42.490;26.012;2023-02-16T09:50:24;101586.16;;;8.38;100.00
19777;BME280;10047;42.490;26.012;2023-02-16T09:53:07;101628.66;;;8.80;100.00
19777;BME280;10047;42.490;26.012;2023-02-16T09:58:49;101574.84;;;9.52;100.00
19777;BME280;10047;42.490;26.012;2023-02-16T10:09:28;101612.97;;;9.70;100.00
19777;BME280;10047;42.490;26.012;2023-02-16T10:12:08;101609.63;;;10.06;100.00
19777;BME280;10047;42.490;26.012;2023-02-16T10:14:52;101601.94;;;9.73;100.00
19777;BME280;10047;42.490;26.012;2023-02-16T10:17:38;101615.38;;;9.29;100.00
19777;BME280;10047;42.490;26.012;2023-02-16T10:20:26;101602.84;;;10.32;100.00
19777;BME280;10047;42.490;26.012;2023-02-16T10:25:57;101551.19;;;10.25;100.00
19777;BME280;10047;42.490;26.012;2023-02-16T10:28:36;101594.38;;;10.48;100.00
19777;BME280;10047;42.490;26.012;2023-02-16T10:31:26;101593.53;;;10.49;100.00
19777;BME280;10047;42.490;26.012;2023-02-16T10:41:43;101580.66;;;11.00;100.00
19777;BME280;10047;42.490;26.012;2023-02-16T10:46:42;101537.66;;;10.22;100.00
19777;BME280;10047;42.490;26.012;2023-02-16T10:49:13;101582.38;;;10.94;100.00
19777;BME280;10047;42.490;26.012;2023-02-16T10:51:42;101522.72;;;11.45;100.00
19777;BME280;10047;42.490;26.012;2023-02-16T10:54:16;101570.53;;;10.91;100.00
19777;BME280;10047;42.490;26.012;2023-02-16T10:56:48;101550.97;;;11.02;100.00
19777;BME280;10047;42.490;26.012;2023-02-16T11:01:47;101563.25;;;11.84;100.00
19777;BME280;10047;42.490;26.012;2023-02-16T11:04:34;101562.47;;;11.65;100.00
19777;BME280;10047;42.490;26.012;2023-02-16T11:09:31;101567.09;;;10.95;100.00
19777;BME280;10047;42.490;26.012;2023-02-16T11:11:56;101551.16;;;12.07;100.00
19777;BME280;10047;42.490;26.012;2023-02-16T11:14:24;101510.81;;;11.45;100.00
19777;BME280;10047;42.490;26.012;2023-02-16T11:17:09;101544.31;;;12.09;100.00
19777;BME280;10047;42.490;26.012;2023-02-16T11:19:40;101543.84;;;11.60;100.00
19777;BME280;10047;42.490;26.012;2023-02-16T11:22:35;101539.66;;;12.52;100.00
19777;BME280;10047;42.490;26.012;2023-02-16T11:25:18;101542.00;;;12.68;100.00
19777;BME280;10047;42.490;26.012;2023-02-16T11:27:55;101544.97;;;11.12;100.00
19777;BME280;10047;42.490;26.012;2023-02-16T11:30:33;101505.34;;;11.98;98.04
19777;BME280;10047;42.490;26.012;2023-02-16T11:33:04;101528.00;;;12.30;95.75
19777;BME280;10047;42.490;26.012;2023-02-16T11:35:43;101502.28;;;11.54;99.68
19777;BME280;10047;42.490;26.012;2023-02-16T11:38:42;101531.91;;;11.74;94.95
19777;BME280;10047;42.490;26.012;2023-02-16T11:41:22;101480.69;;;12.00;94.62
19777;BME280;10047;42.490;26.012;2023-02-16T11:43:49;101472.56;;;11.54;94.01
19777;BME280;10047;42.490;26.012;2023-02-16T11:46:17;101517.31;;;12.70;89.44
19777;BME280;10047;42.490;26.012;2023-02-16T11:48:44;101524.44;;;12.46;80.29
19777;BME280;10047;42.490;26.012;2023-02-16T11:51:12;101429.03;;;11.81;84.98
19777;BME280;10047;42.490;26.012;2023-02-16T11:53:43;101476.47;;;12.73;79.98
19777;BME280;10047;42.490;26.012;2023-02-16T11:56:10;101519.19;;;11.61;93.78
19777;BME280;10047;42.490;26.012;2023-02-16T11:58:37;101508.03;;;11.83;93.68
19777;BME280;10047;42.490;26.012;2023-02-16T12:01:22;101496.00;;;12.77;87.91
19777;BME280;10047;42.490;26.012;2023-02-16T12:07:02;101487.44;;;12.78;86.11
19777;BME280;10047;42.490;26.012;2023-02-16T12:14:50;101486.94;;;12.54;89.08
19777;BME280;10047;42.490;26.012;2023-02-16T12:17:34;101472.19;;;13.36;78.06
19777;BME280;10047;42.490;26.012;2023-02-16T12:23:01;101416.16;;;11.95;82.75
19777;BME280;10047;42.490;26.012;2023-02-16T12:25:41;101463.84;;;13.25;82.03
19777;BME280;10047;42.490;26.012;2023-02-16T12:30:54;101433.00;;;12.78;82.48
19777;BME280;10047;42.490;26.012;2023-02-16T12:45:03;101380.75;;;13.04;69.14
19777;BME280;10047;42.490;26.012;2023-02-16T12:47:46;101442.00;;;13.06;74.54
19777;BME280;10047;42.490;26.012;2023-02-16T12:50:20;101430.00;;;13.64;74.22
19777;BME280;10047;42.490;26.012;2023-02-16T12:52:51;101433.19;;;13.77;72.64
19777;BME280;10047;42.490;26.012;2023-02-16T12:55:27;101385.66;;;12.56;73.93
19777;BME280;10047;42.490;26.012;2023-02-16T12:58:09;101420.06;;;13.48;71.19
19777;BME280;10047;42.490;26.012;2023-02-16T13:09:09;101409.44;;;13.72;67.24
19777;BME280;10047;42.490;26.012;2023-02-16T13:14:15;101393.25;;;14.16;66.77
19777;BME280;10047;42.490;26.012;2023-02-16T13:17:31;101402.66;;;13.18;67.49
19777;BME280;10047;42.490;26.012;2023-02-16T13:19:34;101400.78;;;13.30;66.40
19777;BME280;10047;42.490;26.012;2023-02-16T13:43:25;101379.69;;;13.19;67.96
19777;BME280;10047;42.490;26.012;2023-02-16T13:45:54;101375.81;;;13.46;66.30
19777;BME280;10047;42.490;26.012;2023-02-16T13:48:27;101334.84;;;12.98;67.55
19777;BME280;10047;42.490;26.012;2023-02-16T13:51:03;101378.91;;;13.64;69.04
19777;BME280;10047;42.490;26.012;2023-02-16T13:53:35;101372.44;;;13.44;70.11
19777;BME280;10047;42.490;26.012;2023-02-16T13:58:54;101374.72;;;13.09;71.26
19777;BME280;10047;42.490;26.012;2023-02-16T14:04:00;101291.19;;;13.17;68.58
19777;BME280;10047;42.490;26.012;2023-02-16T14:24:55;101319.56;;;12.97;67.21
19777;BME280;10047;42.490;26.012;2023-02-16T14:27:51;101372.84;;;13.20;66.58
19777;BME280;10047;42.490;26.012;2023-02-16T14:32:52;101317.19;;;13.38;68.22
19777;BME280;10047;42.490;26.012;2023-02-16T14:35:33;101315.34;;;14.32;60.04
19777;BME280;10047;42.490;26.012;2023-02-16T14:38:21;101316.06;;;14.75;57.39
19777;BME280;10047;42.490;26.012;2023-02-16T14:43:42;101359.31;;;14.08;59.58
19777;BME280;10047;42.490;26.012;2023-02-16T14:49:13;101347.06;;;14.63;59.99
19777;BME280;10047;42.490;26.012;2023-02-16T14:57:25;101347.81;;;15.37;58.36
19777;BME280;10047;42.490;26.012;2023-02-16T15:00:11;101349.44;;;15.07;57.16
19777;BME280;10047;42.490;26.012;2023-02-16T15:02:41;101346.19;;;14.23;59.77
19777;BME280;10047;42.490;26.012;2023-02-16T15:05:20;101253.94;;;14.32;58.32
19777;BME280;10047;42.490;26.012;2023-02-16T15:07:48;101342.75;;;15.34;57.20
19777;BME280;10047;42.490;26.012;2023-02-16T15:10:20;101353.59;;;14.38;59.87
19777;BME280;10047;42.490;26.012;2023-02-16T15:12:51;101304.06;;;12.54;66.77
19777;BME280;10047;42.490;26.012;2023-02-16T15:15:20;101349.75;;;13.74;66.86
19777;BME280;10047;42.490;26.012;2023-02-16T15:17:57;101341.75;;;12.92;71.90
19777;BME280;10047;42.490;26.012;2023-02-16T15:20:31;101343.50;;;12.90;76.35
19777;BME280;10047;42.490;26.012;2023-02-16T15:23:04;101352.03;;;12.89;73.49
19777;BME280;10047;42.490;26.012;2023-02-16T15:25:36;101327.03;;;12.54;80.44
19777;BME280;10047;42.490;26.012;2023-02-16T15:30:36;101300.53;;;12.00;80.12
19777;BME280;10047;42.490;26.012;2023-02-16T15:33:12;101338.25;;;11.74;88.78